Time;durP1;ratioP1;P1;durP2;ratioP2;P2;SDS_P1;SDS_P2;PMS_P1;PMS_P2;Temp;Humidity;BMP_temperature;BMP_pressure;BME280_temperature;BME280_humidity;BME280_pressure;Samples;Min_cycle;Max_cycle;Signal;HPM_P1;HPM_P2
2023/07/31 00:00:29;;;;;;;33.65;31.17;;;21.00;99.90;;;;;;5010839;28;20037;-75
2023/07/31 00:02:55;;;;;;;29.15;26.85;;;20.90;99.90;;;;;;5011311;28;20355;-75
2023/07/31 00:05:21;;;;;;;35.03;32.33;;;20.90;99.90;;;;;;5011193;28;20040;-76
2023/07/31 00:07:47;;;;;;;30.65;28.10;;;21.00;99.90;;;;;;4995125;28;20497;-75
2023/07/31 00:10:13;;;;;;;32.08;29.70;;;21.00;99.90;;;;;;5011848;28;20046;-75
2023/07/31 00:12:43;;;;;;;28.45;26.35;;;21.00;99.90;;;;;;5012589;28;20459;-75
2023/07/31 00:15:09;;;;;;;21.55;19.63;;;20.90;99.90;;;;;;5010372;28;20422;-75
2023/07/31 00:17:36;;;;;;;24.52;22.23;;;20.90;99.90;;;;;;4977114;28;20043;-75
2023/07/31 00:20:03;;;;;;;24.83;22.92;;;20.90;99.90;;;;;;5007965;28;20034;-75
2023/07/31 00:22:29;;;;;;;33.22;30.58;;;20.90;99.90;;;;;;5007155;28;20038;-75
2023/07/31 00:24:56;;;;;;;22.52;20.30;;;20.90;99.90;;;;;;4992586;28;20082;-74
2023/07/31 00:27:22;;;;;;;23.13;21.08;;;20.80;99.90;;;;;;5010938;28;20049;-75
2023/07/31 00:29:48;;;;;;;21.15;18.05;;;20.90;99.90;;;;;;5011230;28;20046;-75
2023/07/31 00:32:14;;;;;;;18.60;15.45;;;20.90;99.90;;;;;;5010303;28;20038;-75
2023/07/31 00:34:40;;;;;;;21.13;19.02;;;20.80;99.90;;;;;;5012338;28;20040;-75
2023/07/31 00:37:06;;;;;;;21.95;18.38;;;20.80;99.90;;;;;;5012165;28;20030;-75
2023/07/31 00:39:33;;;;;;;22.58;20.25;;;20.80;99.90;;;;;;5011937;28;20485;-75
2023/07/31 00:41:59;;;;;;;27.70;25.08;;;20.80;99.90;;;;;;5010827;28;20451;-75
2023/07/31 00:44:25;;;;;;;26.20;23.55;;;20.80;99.90;;;;;;5011205;28;20033;-75
2023/07/31 00:46:51;;;;;;;20.88;18.77;;;20.90;99.90;;;;;;5010398;28;20038;-75
2023/07/31 00:49:18;;;;;;;24.83;22.45;;;20.90;99.90;;;;;;5010930;28;20045;-76
2023/07/31 00:51:44;;;;;;;25.08;22.80;;;20.90;99.90;;;;;;5010610;28;20513;-75
2023/07/31 00:54:10;;;;;;;20.02;18.13;;;20.80;99.90;;;;;;5010650;28;20022;-75
2023/07/31 00:56:36;;;;;;;20.05;13.85;;;20.80;99.90;;;;;;5010833;28;20038;-75
2023/07/31 00:59:02;;;;;;;23.67;20.13;;;20.80;99.90;;;;;;5012115;28;20029;-75
2023/07/31 01:01:28;;;;;;;18.95;16.40;;;20.80;99.90;;;;;;5015275;28;20438;-75
2023/07/31 01:03:54;;;;;;;29.40;26.83;;;20.80;99.90;;;;;;5015730;28;20045;-75
2023/07/31 01:06:30;;;;;;;20.85;18.77;;;20.80;99.90;;;;;;5014333;28;20387;-75
2023/07/31 01:09:04;;;;;;;24.48;22.33;;;20.70;99.90;;;;;;5014209;28;20037;-75
2023/07/31 01:11:32;;;;;;;22.15;19.88;;;20.70;99.90;;;;;;5014064;28;20475;-75
2023/07/31 01:13:58;;;;;;;22.00;17.38;;;20.70;99.90;;;;;;5014390;28;20025;-75
2023/07/31 01:16:25;;;;;;;23.70;18.52;;;20.70;99.90;;;;;;5006734;28;20365;-75
2023/07/31 01:18:51;;;;;;;16.67;14.82;;;20.70;99.90;;;;;;4994696;28;20033;-75
2023/07/31 01:21:30;;;;;;;23.38;18.02;;;20.70;99.90;;;;;;5005104;28;20038;-75
2023/07/31 01:24:34;;;;;;;19.63;13.18;;;20.70;99.90;;;;;;5014126;28;20025;-75
2023/07/31 01:27:12;;;;;;;26.13;23.63;;;20.70;99.90;;;;;;5014073;28;20037;-75
2023/07/31 01:29:55;;;;;;;23.40;17.20;;;20.70;99.90;;;;;;5013998;28;20034;-75
2023/07/31 01:32:21;;;;;;;18.52;14.05;;;20.60;99.90;;;;;;5013338;28;20042;-75
2023/07/31 01:34:47;;;;;;;18.55;13.65;;;20.60;99.90;;;;;;5015322;28;20021;-75
2023/07/31 01:37:13;;;;;;;17.45;12.27;;;20.60;99.90;;;;;;5013379;28;20038;-75
2023/07/31 01:39:39;;;;;;;20.02;15.20;;;20.60;99.90;;;;;;5013930;28;20057;-75
2023/07/31 01:42:05;;;;;;;21.08;14.85;;;20.60;99.90;;;;;;5013573;28;20042;-75
2023/07/31 01:44:32;;;;;;;22.67;12.73;;;20.40;99.90;;;;;;5020402;28;20041;-75
2023/07/31 01:47:00;;;;;;;18.15;11.77;;;20.40;99.90;;;;;;5013045;28;20042;-75
2023/07/31 01:49:26;;;;;;;18.33;13.02;;;20.40;99.90;;;;;;5014818;28;20026;-75
2023/07/31 01:51:52;;;;;;;18.38;12.50;;;20.40;99.90;;;;;;5013028;28;20481;-75
2023/07/31 01:54:18;;;;;;;19.25;12.38;;;20.40;99.90;;;;;;5013728;28;20049;-75
2023/07/31 01:56:44;;;;;;;18.88;12.45;;;20.30;99.90;;;;;;5014680;28;20372;-75
2023/07/31 01:59:10;;;;;;;14.65;12.25;;;20.30;99.90;;;;;;5013752;28;20036;-75
2023/07/31 02:01:36;;;;;;;18.13;11.70;;;20.30;99.90;;;;;;5008746;28;20108;-75
2023/07/31 02:04:04;;;;;;;22.35;13.45;;;20.30;99.90;;;;;;5004316;28;20034;-75
2023/07/31 02:06:30;;;;;;;18.05;11.93;;;20.40;99.90;;;;;;5012727;28;20030;-76
2023/07/31 02:08:57;;;;;;;19.90;15.20;;;20.30;99.90;;;;;;5013419;28;20028;-75
2023/07/31 02:11:23;;;;;;;18.83;12.70;;;20.30;99.90;;;;;;5011077;28;20046;-75
2023/07/31 02:13:49;;;;;;;20.92;12.93;;;20.30;99.90;;;;;;5013318;28;20026;-75
2023/07/31 02:16:15;;;;;;;19.23;12.63;;;20.30;99.90;;;;;;5012215;28;20041;-75
2023/07/31 02:18:41;;;;;;;15.05;11.52;;;20.30;99.90;;;;;;5012203;28;20038;-75
2023/07/31 02:21:07;;;;;;;19.38;12.45;;;20.30;99.90;;;;;;5011364;28;20044;-75
2023/07/31 02:23:33;;;;;;;17.05;12.45;;;20.30;99.90;;;;;;5011926;28;20026;-75
2023/07/31 02:25:59;;;;;;;18.02;12.68;;;20.40;99.90;;;;;;5012662;28;20040;-75
2023/07/31 02:28:25;;;;;;;17.80;13.85;;;20.40;99.90;;;;;;5013013;28;20025;-75
2023/07/31 02:30:52;;;;;;;19.15;15.10;;;20.40;99.90;;;;;;5012182;28;20053;-75
2023/07/31 02:33:18;;;;;;;19.75;13.77;;;20.40;99.90;;;;;;5011627;28;20392;-75
2023/07/31 02:35:44;;;;;;;19.77;13.77;;;20.30;99.90;;;;;;5012023;28;20034;-75
2023/07/31 02:38:10;;;;;;;19.27;13.35;;;20.40;99.90;;;;;;5012712;28;20029;-75
2023/07/31 02:40:36;;;;;;;17.77;12.48;;;20.30;99.90;;;;;;5012526;28;20038;-75
2023/07/31 02:43:02;;;;;;;19.75;17.65;;;20.20;99.90;;;;;;5013896;28;20026;-75
2023/07/31 02:45:28;;;;;;;18.92;12.52;;;20.30;99.90;;;;;;5012019;28;20073;-75
2023/07/31 02:47:55;;;;;;;22.20;12.52;;;20.30;99.90;;;;;;5013854;28;20379;-75
2023/07/31 02:50:21;;;;;;;19.60;14.40;;;20.20;99.90;;;;;;5013241;28;20510;-75
2023/07/31 02:52:47;;;;;;;26.25;11.95;;;20.20;99.90;;;;;;5012705;28;20045;-75
2023/07/31 02:55:13;;;;;;;16.92;15.15;;;20.20;99.90;;;;;;5013516;28;20411;-75
2023/07/31 02:57:39;;;;;;;19.38;14.93;;;20.20;99.90;;;;;;5013557;28;20038;-74
2023/07/31 03:00:06;;;;;;;20.33;13.20;;;20.20;99.90;;;;;;5012178;28;20041;-75
2023/07/31 03:02:32;;;;;;;18.65;12.90;;;20.20;99.90;;;;;;5013213;28;20022;-75
2023/07/31 03:04:58;;;;;;;18.17;12.80;;;20.20;99.90;;;;;;5011961;28;20049;-75
2023/07/31 03:07:24;;;;;;;18.98;13.00;;;20.10;99.90;;;;;;5012197;28;20033;-75
2023/07/31 03:09:51;;;;;;;19.70;13.10;;;20.10;99.90;;;;;;5012163;28;20041;-75
2023/07/31 03:12:17;;;;;;;18.75;12.82;;;20.10;99.90;;;;;;5012127;28;20030;-75
2023/07/31 03:14:43;;;;;;;20.45;13.52;;;20.10;99.90;;;;;;5013513;28;20102;-75
2023/07/31 03:17:09;;;;;;;20.67;14.27;;;20.10;99.90;;;;;;4998379;28;20050;-75
2023/07/31 03:19:35;;;;;;;15.02;11.15;;;20.10;99.90;;;;;;4992370;28;20026;-74
2023/07/31 03:22:01;;;;;;;15.18;11.98;;;20.10;99.90;;;;;;5008211;28;20038;-75
2023/07/31 03:24:28;;;;;;;19.08;12.13;;;20.10;99.90;;;;;;5011962;28;20037;-75
2023/07/31 03:26:54;;;;;;;22.15;15.98;;;20.10;99.90;;;;;;5012974;28;20502;-75
2023/07/31 03:29:20;;;;;;;20.38;16.90;;;20.10;99.90;;;;;;5013126;28;20030;-75
2023/07/31 03:31:46;;;;;;;20.85;14.85;;;20.10;99.90;;;;;;5012436;28;20522;-75
2023/07/31 03:34:12;;;;;;;17.02;12.50;;;20.00;99.90;;;;;;5012842;28;20029;-75
2023/07/31 03:36:38;;;;;;;19.38;13.57;;;19.90;99.90;;;;;;5012802;28;20398;-75
2023/07/31 03:39:04;;;;;;;20.20;16.80;;;19.90;99.90;;;;;;5012926;28;20026;-75
2023/07/31 03:41:31;;;;;;;19.25;13.45;;;19.90;99.90;;;;;;5011756;28;20390;-75
2023/07/31 03:43:57;;;;;;;18.13;14.73;;;19.90;99.90;;;;;;5012760;28;20101;-76
2023/07/31 03:46:26;;;;;;;17.63;12.75;;;19.80;99.90;;;;;;5010898;28;20033;-75
2023/07/31 03:48:52;;;;;;;16.55;12.23;;;19.80;99.90;;;;;;5011529;28;20030;-76
2023/07/31 03:51:18;;;;;;;17.05;12.65;;;19.80;99.90;;;;;;5012205;28;20049;-76
2023/07/31 03:53:45;;;;;;;22.60;12.55;;;19.80;99.90;;;;;;5012781;28;20026;-75
2023/07/31 03:56:11;;;;;;;16.13;12.10;;;19.80;99.90;;;;;;5012280;28;20041;-75
2023/07/31 03:58:37;;;;;;;23.90;13.15;;;19.80;99.90;;;;;;5012733;28;20486;-75
2023/07/31 04:01:03;;;;;;;18.38;11.90;;;19.80;99.90;;;;;;5010024;28;20034;-76
2023/07/31 04:03:30;;;;;;;17.38;12.80;;;19.70;99.90;;;;;;5011107;28;20030;-75
2023/07/31 04:05:56;;;;;;;17.08;13.02;;;19.70;99.90;;;;;;4995013;28;20050;-75
2023/07/31 04:08:22;;;;;;;17.75;12.70;;;19.60;99.90;;;;;;5012490;28;20041;-75
2023/07/31 04:10:48;;;;;;;23.05;13.73;;;19.60;99.90;;;;;;5011045;28;20046;-75
2023/07/31 04:13:15;;;;;;;22.00;18.33;;;19.70;99.90;;;;;;4994912;28;20041;-75
2023/07/31 04:15:41;;;;;;;18.88;15.95;;;19.60;99.90;;;;;;5009401;28;20476;-75
2023/07/31 04:18:07;;;;;;;22.75;16.27;;;19.70;99.90;;;;;;4975414;28;20047;-75
2023/07/31 04:20:33;;;;;;;23.40;16.75;;;19.70;99.90;;;;;;4991734;28;20042;-76
2023/07/31 04:22:59;;;;;;;19.23;14.35;;;19.60;99.90;;;;;;4992733;28;20037;-75
2023/07/31 04:25:25;;;;;;;23.60;13.60;;;19.50;99.90;;;;;;4991733;28;20035;-76
2023/07/31 04:27:51;;;;;;;21.95;14.77;;;19.50;99.90;;;;;;5010579;28;20037;-75
2023/07/31 04:30:17;;;;;;;20.70;13.52;;;19.60;99.90;;;;;;5011587;28;20041;-75
2023/07/31 04:32:44;;;;;;;19.15;10.50;;;19.40;99.90;;;;;;5010842;28;20479;-75
2023/07/31 04:35:10;;;;;;;20.55;10.32;;;19.40;99.90;;;;;;5015273;28;20022;-76
2023/07/31 04:37:36;;;;;;;20.67;11.15;;;19.40;99.90;;;;;;5011762;28;20480;-75
2023/07/31 04:40:03;;;;;;;18.83;11.15;;;19.40;99.90;;;;;;4996632;28;20030;-75
2023/07/31 04:42:29;;;;;;;20.67;11.32;;;19.40;99.90;;;;;;5014920;28;20049;-75
2023/07/31 04:44:55;;;;;;;20.55;10.40;;;19.40;99.90;;;;;;5016092;28;20030;-75
2023/07/31 04:47:21;;;;;;;19.05;11.60;;;19.40;99.90;;;;;;5015123;28;20037;-75
2023/07/31 04:49:47;;;;;;;16.85;12.45;;;19.50;99.90;;;;;;5014634;28;20033;-76
2023/07/31 04:52:13;;;;;;;21.00;11.98;;;19.40;99.90;;;;;;5015651;28;20049;-75
2023/07/31 04:54:39;;;;;;;16.85;10.77;;;19.50;99.90;;;;;;5015978;28;20391;-75
2023/07/31 04:57:06;;;;;;;19.50;12.07;;;19.40;99.90;;;;;;5015681;28;20038;-75
2023/07/31 04:59:32;;;;;;;24.08;14.15;;;19.40;99.90;;;;;;5014898;28;20034;-75
2023/07/31 05:01:58;;;;;;;21.30;12.70;;;19.40;99.90;;;;;;5013754;28;20037;-73
2023/07/31 05:04:24;;;;;;;22.77;13.40;;;19.40;99.90;;;;;;5015709;28;20030;-73
2023/07/31 05:06:50;;;;;;;21.80;14.32;;;19.40;99.90;;;;;;5015398;28;20041;-73
2023/07/31 05:09:16;;;;;;;23.42;13.77;;;19.40;99.90;;;;;;5014786;28;20038;-73
2023/07/31 05:11:42;;;;;;;20.33;13.25;;;19.40;99.90;;;;;;5014083;28;20053;-73
2023/07/31 05:14:09;;;;;;;19.48;14.70;;;19.50;99.90;;;;;;5014490;28;20033;-75
2023/07/31 05:16:35;;;;;;;20.40;14.98;;;19.60;99.90;;;;;;5006530;28;20043;-75
2023/07/31 05:19:01;;;;;;;19.52;15.13;;;19.60;99.90;;;;;;4994757;28;20459;-75
2023/07/31 05:21:27;;;;;;;24.75;16.67;;;19.50;99.90;;;;;;5004965;28;20030;-75
2023/07/31 05:23:53;;;;;;;21.42;17.15;;;19.50;99.90;;;;;;5015390;28;20754;-75
2023/07/31 05:26:19;;;;;;;24.33;16.60;;;19.50;99.90;;;;;;5014145;28;20056;-75
2023/07/31 05:28:45;;;;;;;18.98;15.95;;;19.50;99.90;;;;;;4997473;28;20034;-75
2023/07/31 05:31:12;;;;;;;22.95;16.33;;;19.60;99.90;;;;;;5014476;28;20048;-75
2023/07/31 05:33:38;;;;;;;21.60;15.95;;;19.60;99.90;;;;;;5015332;28;20033;-75
2023/07/31 05:36:04;;;;;;;18.42;14.90;;;19.70;99.90;;;;;;4997325;28;20041;-76
2023/07/31 05:38:30;;;;;;;23.20;16.92;;;19.70;99.90;;;;;;5015219;28;20030;-75
2023/07/31 05:40:56;;;;;;;21.00;18.75;;;19.80;99.90;;;;;;5013704;28;20037;-75
2023/07/31 05:43:22;;;;;;;26.50;17.73;;;19.80;99.90;;;;;;5014584;28;20034;-75
2023/07/31 05:45:48;;;;;;;23.52;18.85;;;19.80;99.90;;;;;;5011986;28;20082;-76
2023/07/31 05:48:14;;;;;;;18.92;16.73;;;19.80;99.90;;;;;;5015010;28;20033;-75
2023/07/31 05:50:40;;;;;;;23.10;17.27;;;19.80;99.90;;;;;;5014554;28;20045;-76
2023/07/31 05:53:07;;;;;;;22.20;18.42;;;19.80;99.90;;;;;;5013719;28;20026;-75
2023/07/31 05:55:34;;;;;;;20.92;16.40;;;19.80;99.90;;;;;;5014653;28;20046;-76
2023/07/31 05:58:00;;;;;;;23.98;18.17;;;19.90;99.90;;;;;;5014564;28;20045;-75
2023/07/31 06:00:27;;;;;;;20.73;16.80;;;19.90;99.90;;;;;;5014064;28;20030;-75
2023/07/31 06:02:53;;;;;;;21.20;16.55;;;19.90;99.90;;;;;;5013792;28;20383;-75
2023/07/31 06:05:19;;;;;;;19.80;17.67;;;19.90;99.90;;;;;;5013193;28;20029;-76
2023/07/31 06:07:45;;;;;;;22.23;17.25;;;19.90;99.90;;;;;;5013353;28;20029;-75
2023/07/31 06:10:11;;;;;;;20.02;17.30;;;19.90;99.90;;;;;;5013264;28;20387;-75
2023/07/31 06:12:38;;;;;;;21.45;17.48;;;20.00;99.90;;;;;;5014087;28;20049;-75
2023/07/31 06:15:05;;;;;;;24.38;18.17;;;19.90;99.90;;;;;;5012741;28;20061;-75
2023/07/31 06:17:31;;;;;;;20.60;16.40;;;20.00;99.90;;;;;;4998287;28;20034;-75
2023/07/31 06:19:58;;;;;;;20.08;16.63;;;19.90;99.90;;;;;;4994868;28;20080;-76
2023/07/31 06:22:24;;;;;;;23.73;17.38;;;19.90;99.90;;;;;;5012675;28;20041;-76
2023/07/31 06:24:50;;;;;;;21.55;18.33;;;19.90;99.90;;;;;;5014368;28;20037;-76
2023/07/31 06:27:16;;;;;;;25.67;19.10;;;19.90;99.90;;;;;;5013711;28;20384;-76
2023/07/31 06:29:42;;;;;;;20.52;18.17;;;20.00;99.90;;;;;;5013083;28;20038;-76
2023/07/31 06:32:08;;;;;;;23.83;20.30;;;20.10;99.90;;;;;;4996025;28;20045;-75
2023/07/31 06:34:34;;;;;;;21.55;18.90;;;20.10;99.90;;;;;;4996423;28;20042;-76
2023/07/31 06:37:01;;;;;;;21.67;19.58;;;20.10;99.90;;;;;;5012148;28;20486;-75
2023/07/31 06:39:27;;;;;;;24.92;20.23;;;20.20;99.90;;;;;;5014080;28;20475;-76
2023/07/31 06:41:53;;;;;;;26.98;20.83;;;20.20;99.90;;;;;;5013268;28;20037;-75
2023/07/31 06:44:19;;;;;;;23.42;21.02;;;20.20;99.90;;;;;;5013838;28;20033;-75
2023/07/31 06:46:45;;;;;;;30.92;21.77;;;20.20;99.90;;;;;;5013202;28;20038;-76
2023/07/31 06:49:11;;;;;;;24.63;22.33;;;20.30;99.90;;;;;;5013705;28;20026;-76
2023/07/31 06:51:38;;;;;;;26.83;23.92;;;20.30;99.90;;;;;;5013288;28;20049;-75
2023/07/31 06:54:04;;;;;;;27.50;24.77;;;20.30;99.90;;;;;;5013614;28;20030;-76
2023/07/31 06:56:30;;;;;;;26.25;23.63;;;20.40;99.90;;;;;;5012724;28;20041;-75
2023/07/31 06:58:56;;;;;;;26.13;23.67;;;20.40;99.90;;;;;;5012574;28;20390;-75
2023/07/31 07:01:22;;;;;;;26.77;24.00;;;20.40;99.90;;;;;;5011661;28;20034;-76
2023/07/31 07:03:50;;;;;;;26.88;24.17;;;20.30;99.90;;;;;;5012441;28;20372;-76
2023/07/31 07:06:17;;;;;;;27.48;24.58;;;20.40;99.90;;;;;;5013492;28;20038;-76
2023/07/31 07:08:43;;;;;;;26.42;23.65;;;20.40;99.90;;;;;;5012526;28;20026;-76
2023/07/31 07:11:09;;;;;;;26.60;24.02;;;20.40;99.90;;;;;;5012833;28;20037;-76
2023/07/31 07:13:36;;;;;;;30.00;27.15;;;20.40;99.90;;;;;;5012165;28;20037;-75
2023/07/31 07:16:02;;;;;;;32.58;29.58;;;20.50;99.90;;;;;;5012334;28;20022;-76
2023/07/31 07:18:28;;;;;;;32.28;29.83;;;20.50;99.90;;;;;;5013390;28;20033;-75
2023/07/31 07:20:54;;;;;;;32.70;29.88;;;20.60;99.90;;;;;;5013135;28;20034;-75
2023/07/31 07:23:20;;;;;;;29.10;26.17;;;20.70;99.90;;;;;;5012070;28;20045;-76
2023/07/31 07:25:47;;;;;;;32.05;28.85;;;20.70;99.90;;;;;;5011479;28;20518;-76
2023/07/31 07:28:13;;;;;;;28.25;25.65;;;20.70;99.90;;;;;;4995598;28;20045;-75
2023/07/31 07:30:39;;;;;;;30.65;27.15;;;20.70;99.90;;;;;;5011279;28;20033;-76
2023/07/31 07:33:06;;;;;;;32.10;28.70;;;20.80;99.90;;;;;;5013093;28;20061;-76
2023/07/31 07:35:35;;;;;;;46.47;42.75;;;20.80;99.90;;;;;;5011412;28;20033;-76
2023/07/31 07:38:04;;;;;;;38.63;35.60;;;20.80;99.90;;;;;;5012914;28;20026;-76
2023/07/31 07:40:30;;;;;;;27.33;24.65;;;20.80;99.90;;;;;;5012363;28;20034;-76
2023/07/31 07:42:56;;;;;;;25.17;23.25;;;20.70;99.90;;;;;;5012921;28;20053;-75
2023/07/31 07:45:23;;;;;;;26.08;22.33;;;20.70;99.90;;;;;;5012019;28;20070;-76
2023/07/31 07:47:49;;;;;;;22.73;20.20;;;20.70;99.90;;;;;;5011749;28;20034;-76
2023/07/31 07:50:15;;;;;;;22.75;20.50;;;20.70;99.90;;;;;;5011087;28;20046;-76
2023/07/31 07:52:41;;;;;;;23.38;21.20;;;20.80;99.90;;;;;;5011591;28;20109;-76
2023/07/31 07:55:07;;;;;;;30.42;27.80;;;20.80;99.90;;;;;;5012493;28;20030;-76
2023/07/31 07:57:33;;;;;;;35.35;32.50;;;20.80;99.90;;;;;;5012592;28;20391;-76
2023/07/31 08:00:00;;;;;;;33.15;30.30;;;20.80;99.90;;;;;;5013001;28;20049;-76
2023/07/31 08:02:26;;;;;;;32.85;30.17;;;20.90;99.90;;;;;;5011729;28;20034;-76
2023/07/31 08:04:52;;;;;;;37.95;34.83;;;21.00;99.90;;;;;;5012664;28;20037;-76
2023/07/31 08:07:18;;;;;;;33.42;30.70;;;21.00;99.90;;;;;;5012459;28;20026;-76
2023/07/31 08:09:44;;;;;;;34.72;32.22;;;21.00;99.90;;;;;;5010320;28;20391;-76
2023/07/31 08:12:10;;;;;;;35.78;32.78;;;21.10;99.90;;;;;;5011035;28;20041;-75
2023/07/31 08:14:37;;;;;;;35.45;32.60;;;21.10;99.90;;;;;;5012722;28;20375;-75
2023/07/31 08:17:03;;;;;;;33.35;30.52;;;21.10;99.90;;;;;;4998342;28;20056;-75
2023/07/31 08:19:29;;;;;;;36.75;33.72;;;21.00;99.90;;;;;;4992929;28;20033;-75
2023/07/31 08:21:55;;;;;;;37.88;34.88;;;21.00;99.90;;;;;;5005760;28;20030;-76
2023/07/31 08:24:21;;;;;;;36.08;33.40;;;21.00;99.90;;;;;;5011932;28;20033;-76
2023/07/31 08:26:48;;;;;;;38.10;35.38;;;21.00;99.90;;;;;;5012271;28;20387;-76
2023/07/31 08:29:14;;;;;;;35.08;32.10;;;21.00;99.90;;;;;;5012176;28;20025;-76
2023/07/31 08:31:40;;;;;;;36.78;33.90;;;21.10;99.90;;;;;;5010640;28;20065;-76
2023/07/31 08:34:06;;;;;;;34.50;31.83;;;21.20;99.90;;;;;;4994706;28;20038;-76
2023/07/31 08:36:32;;;;;;;36.55;33.53;;;21.20;99.90;;;;;;5011918;28;20360;-76
2023/07/31 08:38:58;;;;;;;36.45;33.65;;;21.20;99.90;;;;;;5011962;28;20030;-76
2023/07/31 08:41:25;;;;;;;34.17;31.63;;;21.10;99.90;;;;;;4994609;28;20505;-76
2023/07/31 08:43:51;;;;;;;33.63;31.17;;;21.20;99.90;;;;;;5012195;28;20034;-76
2023/07/31 08:46:17;;;;;;;32.88;30.20;;;21.20;99.90;;;;;;5010259;28;20034;-76
2023/07/31 08:48:45;;;;;;;33.17;30.48;;;21.20;99.90;;;;;;5010966;28;20026;-76
2023/07/31 08:51:11;;;;;;;33.33;30.80;;;21.20;99.90;;;;;;5010577;28;20410;-76
2023/07/31 08:53:37;;;;;;;33.00;30.23;;;21.10;99.90;;;;;;5010584;28;20030;-76
2023/07/31 08:56:03;;;;;;;32.25;30.02;;;21.10;99.90;;;;;;4994308;28;20101;-76
2023/07/31 08:58:31;;;;;;;34.45;31.65;;;21.10;99.90;;;;;;5012055;28;20040;-76
2023/07/31 09:00:58;;;;;;;32.35;30.02;;;21.10;99.90;;;;;;5010266;28;20041;-76
2023/07/31 09:03:25;;;;;;;33.53;30.95;;;21.10;99.90;;;;;;5010962;28;20029;-76
2023/07/31 09:05:51;;;;;;;33.58;30.65;;;21.10;99.90;;;;;;5010509;28;20057;-76
2023/07/31 09:08:21;;;;;;;36.22;33.50;;;21.20;99.90;;;;;;5010452;28;20382;-76
2023/07/31 09:10:47;;;;;;;34.95;32.00;;;21.30;99.90;;;;;;5010777;28;20471;-76
2023/07/31 09:13:14;;;;;;;36.50;34.05;;;21.30;99.90;;;;;;5010656;28;20467;-76
2023/07/31 09:15:40;;;;;;;38.85;36.08;;;21.40;99.90;;;;;;5009204;28;20034;-76
2023/07/31 09:18:07;;;;;;;41.70;38.72;;;21.60;99.90;;;;;;4991185;28;20034;-76
2023/07/31 09:20:33;;;;;;;42.38;39.33;;;21.60;99.90;;;;;;4995992;28;20029;-76
2023/07/31 09:23:13;;;;;;;46.13;42.75;;;21.70;99.90;;;;;;5013891;28;20030;-76
2023/07/31 09:25:39;;;;;;;41.85;38.95;;;21.90;99.90;;;;;;5014025;28;20035;-76
2023/07/31 09:28:07;;;;;;;44.55;41.45;;;22.00;99.90;;;;;;5015317;28;20033;-76
2023/07/31 09:30:46;;;;;;;44.10;40.75;;;22.00;99.90;;;;;;4996833;28;20033;-76
2023/07/31 09:33:13;;;;;;;46.13;43.05;;;22.10;99.90;;;;;;5014118;28;20053;-76
2023/07/31 09:35:40;;;;;;;45.85;42.95;;;22.20;99.90;;;;;;5013578;28;20494;-76
2023/07/31 09:38:10;;;;;;;44.33;41.17;;;22.20;99.90;;;;;;5013979;28;20041;-75
2023/07/31 09:40:40;;;;;;;45.13;42.33;;;22.20;99.90;;;;;;5013805;28;20375;-75
2023/07/31 09:43:10;;;;;;;48.17;44.80;;;22.30;99.90;;;;;;5013881;28;20038;-75
2023/07/31 09:45:40;;;;;;;49.00;45.95;;;22.30;99.90;;;;;;5014069;28;20053;-75
2023/07/31 09:48:10;;;;;;;46.10;43.20;;;22.50;99.90;;;;;;5014245;28;20021;-75
2023/07/31 09:50:40;;;;;;;45.63;42.63;;;22.60;99.90;;;;;;5013030;28;20502;-75
2023/07/31 09:53:07;;;;;;;47.83;44.97;;;22.80;99.90;;;;;;5013676;28;20048;-75
2023/07/31 09:55:33;;;;;;;45.03;41.75;;;22.80;99.90;;;;;;5014544;28;20030;-74
2023/07/31 09:57:59;;;;;;;47.85;44.75;;;22.80;99.90;;;;;;5014992;28;20030;-75
2023/07/31 10:00:28;;;;;;;51.67;48.35;;;22.90;99.90;;;;;;5012862;28;20036;-75
2023/07/31 10:02:54;;;;;;;51.33;48.38;;;23.00;99.90;;;;;;5014429;28;20379;-74
2023/07/31 10:05:20;;;;;;;47.72;44.25;;;23.00;99.90;;;;;;5013069;28;20041;-75
2023/07/31 10:07:52;;;;;;;48.80;45.67;;;23.10;99.90;;;;;;5013501;28;20033;-75
2023/07/31 10:10:18;;;;;;;48.40;45.22;;;23.10;99.90;;;;;;5013267;28;20030;-74
2023/07/31 10:12:44;;;;;;;47.15;44.22;;;23.20;99.90;;;;;;5013156;28;20045;-75
2023/07/31 10:15:10;;;;;;;39.30;36.80;;;23.30;99.90;;;;;;5012594;28;20037;-74
2023/07/31 10:17:37;;;;;;;40.33;37.60;;;23.30;99.90;;;;;;4996755;28;20030;-74
2023/07/31 10:20:04;;;;;;;40.70;38.20;;;23.30;99.90;;;;;;4993543;28;20042;-74
2023/07/31 10:22:31;;;;;;;41.92;39.08;;;23.30;99.90;;;;;;5012619;28;20049;-75
2023/07/31 10:24:58;;;;;;;39.63;37.08;;;23.30;99.90;;;;;;5013183;28;20026;-75
2023/07/31 10:27:24;;;;;;;39.40;36.85;;;23.30;99.90;;;;;;5012870;28;20392;-75
2023/07/31 10:29:51;;;;;;;36.88;34.38;;;23.40;99.90;;;;;;5013063;28;20515;-75
2023/07/31 10:32:18;;;;;;;35.38;33.08;;;23.50;99.90;;;;;;5011694;28;20049;-77
2023/07/31 10:34:44;;;;;;;42.17;39.63;;;23.50;99.90;;;;;;5012576;28;20030;-75
2023/07/31 10:37:22;;;;;;;39.08;36.80;;;23.50;99.90;;;;;;5012640;28;20388;-75
2023/07/31 10:40:15;;;;;;;39.72;37.35;;;23.50;99.90;;;;;;5014034;28;20018;-75
2023/07/31 10:42:48;;;;;;;40.63;38.13;;;23.60;99.90;;;;;;5014047;28;20037;-75
2023/07/31 10:45:23;;;;;;;35.42;33.22;;;23.80;99.90;;;;;;5012131;28;20029;-75
2023/07/31 10:47:49;;;;;;;30.10;28.20;;;23.90;99.90;;;;;;5012413;28;20037;-75
2023/07/31 10:50:19;;;;;;;34.10;32.08;;;24.00;99.90;;;;;;5012137;28;20507;-74
2023/07/31 10:52:53;;;;;;;31.23;29.30;;;24.00;99.90;;;;;;5012649;28;20054;-75
2023/07/31 10:55:33;;;;;;;37.00;34.88;;;24.00;99.90;;;;;;5013505;28;20037;-75
2023/07/31 10:58:10;;;;;;;35.22;33.15;;;24.00;99.90;;;;;;5012586;28;20046;-75
2023/07/31 11:00:38;;;;;;;36.45;34.10;;;24.00;99.90;;;;;;5012932;28;20045;-75
2023/07/31 11:03:14;;;;;;;35.45;33.22;;;23.90;99.90;;;;;;5013683;28;20387;-74
2023/07/31 11:05:46;;;;;;;39.13;36.67;;;23.90;99.90;;;;;;5013357;28;20025;-75
2023/07/31 11:08:22;;;;;;;39.83;37.42;;;23.90;99.90;;;;;;5013572;28;20475;-75
2023/07/31 11:11:10;;;;;;;37.90;35.70;;;23.90;99.90;;;;;;5012135;28;20037;-74
2023/07/31 11:13:50;;;;;;;36.08;34.05;;;23.90;99.90;;;;;;5012966;28;20053;-77
2023/07/31 11:16:16;;;;;;;37.33;35.17;;;23.80;99.90;;;;;;5005792;28;20035;-75
2023/07/31 11:18:44;;;;;;;36.13;34.08;;;23.80;99.90;;;;;;4993406;28;20042;-75
2023/07/31 11:21:18;;;;;;;33.13;30.92;;;23.70;99.90;;;;;;5000417;28;20026;-75
2023/07/31 11:23:51;;;;;;;34.42;32.08;;;23.70;99.90;;;;;;5013198;28;20021;-74
2023/07/31 11:26:17;;;;;;;34.17;31.98;;;23.60;99.90;;;;;;5011795;28;20037;-75
2023/07/31 11:28:43;;;;;;;36.03;33.92;;;23.70;99.90;;;;;;5013332;28;20037;-74
2023/07/31 11:31:09;;;;;;;34.33;32.13;;;23.60;99.90;;;;;;5012486;28;20037;-75
2023/07/31 11:33:35;;;;;;;35.45;33.30;;;23.60;99.90;;;;;;5011495;28;20045;-75
2023/07/31 11:36:02;;;;;;;34.40;32.33;;;23.50;99.90;;;;;;5011455;28;20064;-75
2023/07/31 11:38:30;;;;;;;34.97;32.85;;;23.40;99.90;;;;;;5011841;28;20041;-74
2023/07/31 11:40:57;;;;;;;38.47;36.22;;;23.40;99.90;;;;;;5011437;28;20033;-74
2023/07/31 11:43:23;;;;;;;45.03;42.58;;;23.30;99.90;;;;;;5012092;28;20037;-75
2023/07/31 11:45:51;;;;;;;45.53;43.08;;;23.30;99.90;;;;;;5011815;28;20038;-75
2023/07/31 11:48:24;;;;;;;44.53;41.80;;;23.40;99.90;;;;;;5011480;28;20025;-75
2023/07/31 11:50:51;;;;;;;41.90;39.60;;;23.40;99.90;;;;;;5012478;28;20041;-74
2023/07/31 11:53:20;;;;;;;37.63;35.25;;;23.50;99.90;;;;;;5011422;28;20045;-75
2023/07/31 11:55:46;;;;;;;46.17;43.70;;;23.40;99.90;;;;;;5011242;28;20383;-75
2023/07/31 11:58:13;;;;;;;47.17;44.67;;;23.40;99.90;;;;;;5012762;28;20037;-74
2023/07/31 12:00:40;;;;;;;51.20;48.25;;;23.30;99.90;;;;;;5010504;28;20030;-75
2023/07/31 12:03:06;;;;;;;38.45;36.05;;;23.30;99.90;;;;;;5011318;28;20022;-75
2023/07/31 12:05:32;;;;;;;36.75;34.33;;;23.40;99.90;;;;;;5011196;28;20022;-74
2023/07/31 12:07:58;;;;;;;44.13;41.40;;;23.50;99.90;;;;;;5012715;28;20030;-75
2023/07/31 12:10:26;;;;;;;35.17;33.17;;;23.60;99.90;;;;;;5012279;28;20026;-75
2023/07/31 12:13:14;;;;;;;37.83;35.55;;;23.60;99.90;;;;;;5011240;28;20038;-74
2023/07/31 12:15:44;;;;;;;34.40;32.33;;;23.70;99.90;;;;;;5010543;28;20037;-75
2023/07/31 12:18:11;;;;;;;36.38;34.20;;;23.80;99.90;;;;;;4992876;28;20031;-74
2023/07/31 12:21:07;;;;;;;34.72;32.70;;;23.80;99.90;;;;;;4995225;28;20479;-75
2023/07/31 12:23:35;;;;;;;46.33;43.67;;;23.80;99.90;;;;;;4996670;28;20061;-74
2023/07/31 12:26:14;;;;;;;42.72;40.40;;;23.80;99.90;;;;;;5010971;28;20357;-75
2023/07/31 12:28:42;;;;;;;37.17;35.00;;;24.00;99.90;;;;;;5011419;28;20030;-75